createdAt,value
2023-03-21T00:04:05.122Z,8.86
2023-03-21T00:09:06.696Z,8.89
2023-03-21T00:14:09.015Z,8.89
2023-03-21T00:19:10.812Z,8.85
2023-03-21T00:24:12.759Z,8.78
2023-03-21T00:29:14.383Z,8.78
2023-03-21T00:34:17.702Z,8.86
2023-03-21T00:39:24.392Z,8.89
2023-03-21T00:44:25.882Z,8.88
2023-03-21T00:49:27.817Z,8.93
2023-03-21T00:54:29.572Z,8.99
2023-03-21T00:59:31.116Z,8.97
2023-03-21T01:04:34.334Z,8.90
2023-03-21T01:09:35.897Z,8.93
2023-03-21T01:14:38.062Z,8.97
2023-03-21T01:19:51.277Z,8.95
2023-03-21T01:24:58.623Z,8.88
2023-03-21T01:30:04.256Z,8.88
2023-03-21T01:35:09.106Z,8.91
2023-03-21T01:40:20.233Z,8.86
2023-03-21T01:45:59.317Z,8.77
2023-03-21T01:51:01.659Z,8.72
2023-03-21T01:56:11.136Z,8.70
2023-03-21T02:01:19.871Z,8.68
2023-03-21T02:06:35.481Z,8.65
2023-03-21T02:11:38.062Z,8.65
2023-03-21T02:17:01.698Z,8.68
2023-03-21T02:22:15.341Z,8.65
2023-03-21T02:27:22.168Z,8.60
2023-03-21T02:32:37.061Z,8.58
2023-03-21T02:37:58.303Z,8.58
2023-03-21T02:43:24.123Z,8.58
2023-03-21T02:48:44.450Z,8.54
2023-03-21T02:54:23.739Z,8.51
2023-03-21T02:59:22.224Z,8.51
2023-03-21T03:04:28.819Z,8.46
2023-03-21T03:10:00.332Z,8.37
2023-03-21T03:15:22.131Z,8.34
2023-03-21T03:21:03.064Z,8.38
2023-03-21T03:26:09.358Z,8.33
2023-03-21T03:31:20.796Z,8.28
2023-03-21T03:36:32.598Z,8.30
2023-03-21T03:42:04.148Z,8.36
2023-03-21T03:47:29.882Z,8.37
2023-03-21T03:52:55.324Z,8.30
2023-03-21T03:57:58.069Z,8.36
2023-03-21T04:03:00.160Z,8.34
2023-03-21T04:08:02.237Z,8.37
2023-03-21T04:13:04.003Z,8.37
2023-03-21T04:18:06.398Z,8.43
2023-03-21T04:23:08.700Z,8.51
2023-03-21T04:28:10.195Z,8.54
2023-03-21T04:33:11.686Z,8.47
2023-03-21T04:38:13.232Z,8.32
2023-03-21T04:43:15.478Z,8.26
2023-03-21T04:48:19.520Z,8.23
2023-03-21T04:53:21.182Z,8.21
2023-03-21T04:58:22.728Z,8.17
2023-03-21T05:03:25.278Z,8.19
2023-03-21T05:08:27.071Z,8.28
2023-03-21T05:13:28.745Z,8.37
2023-03-21T05:18:30.918Z,8.40
2023-03-21T05:23:38.301Z,8.40
2023-03-21T05:28:40.117Z,8.46
2023-03-21T05:33:41.775Z,8.56
2023-03-21T05:38:45.752Z,8.59
2023-03-21T05:43:47.783Z,8.58
2023-03-21T05:48:49.304Z,8.56
2023-03-21T05:53:51.994Z,8.61
2023-03-21T05:58:53.545Z,8.64
2023-03-21T06:03:55.746Z,8.61
2023-03-21T06:08:57.305Z,8.54
2023-03-21T06:13:58.889Z,8.51
2023-03-21T06:19:00.632Z,8.67
2023-03-21T06:24:02.583Z,8.75
2023-03-21T06:29:04.482Z,8.84
2023-03-21T06:34:06.653Z,8.96
2023-03-21T06:39:09.332Z,9.10
2023-03-21T06:44:10.900Z,9.16
2023-03-21T06:49:12.427Z,9.18
2023-03-21T06:54:14.796Z,9.21
2023-03-21T06:59:16.870Z,9.21
2023-03-21T07:04:18.370Z,9.24
2023-03-21T07:09:24.424Z,9.33
2023-03-21T07:14:26.444Z,9.32
2023-03-21T07:19:27.975Z,9.25
2023-03-21T07:24:29.511Z,9.21
2023-03-21T07:29:31.052Z,9.16
2023-03-21T07:34:33.957Z,9.42
2023-03-21T07:39:36.284Z,9.68
2023-03-21T07:44:37.766Z,9.69
2023-03-21T07:49:39.420Z,9.57
2023-03-21T07:54:40.966Z,9.63
2023-03-21T07:59:42.469Z,9.71
2023-03-21T08:04:44.613Z,9.73
2023-03-21T08:09:46.228Z,9.91
2023-03-21T08:14:47.980Z,9.98
2023-03-21T08:19:49.537Z,9.79
2023-03-21T08:24:51.172Z,9.81
2023-03-21T08:29:52.911Z,9.81
2023-03-21T08:34:54.428Z,9.74
2023-03-21T08:39:56.137Z,9.68
2023-03-21T08:44:57.728Z,9.79
2023-03-21T08:49:59.350Z,10.05
2023-03-21T08:55:02.344Z,10.32
2023-03-21T09:00:31.786Z,10.53
2023-03-21T09:05:34.024Z,10.76
2023-03-21T09:10:35.632Z,10.92
2023-03-21T09:15:37.646Z,11.07
2023-03-21T09:20:40.501Z,11.25
2023-03-21T09:25:43.010Z,11.29
2023-03-21T09:30:50.905Z,11.48
2023-03-21T09:35:54.961Z,11.57
2023-03-21T09:41:10.048Z,11.65
2023-03-21T09:46:24.755Z,11.40
2023-03-21T09:51:31.293Z,11.00
2023-03-21T09:56:34.447Z,10.90
2023-03-21T10:01:42.148Z,11.08
2023-03-21T10:06:45.819Z,11.40
2023-03-21T10:11:52.371Z,11.41
2023-03-21T10:17:19.464Z,11.45
2023-03-21T10:22:21.430Z,11.47
2023-03-21T10:27:23.398Z,11.33
2023-03-21T10:32:24.881Z,11.16
2023-03-21T10:37:27.602Z,10.99
2023-03-21T10:42:32.970Z,10.94
2023-03-21T10:47:36.294Z,10.98
2023-03-21T10:52:45.910Z,10.99
2023-03-21T10:57:54.050Z,11.09
2023-03-21T11:02:57.426Z,10.90
2023-03-21T11:08:19.985Z,10.70
2023-03-21T11:13:27.518Z,10.18
2023-03-21T11:18:33.331Z,9.93
2023-03-21T11:23:40.681Z,9.70
2023-03-21T11:28:44.971Z,9.49
2023-03-21T11:33:56.278Z,9.34
2023-03-21T11:39:01.796Z,9.36
2023-03-21T11:44:03.821Z,9.38
2023-03-21T11:49:05.373Z,9.66
2023-03-21T11:54:25.360Z,10.03
2023-03-21T11:59:48.406Z,10.25
2023-03-21T12:04:55.711Z,10.38
2023-03-21T12:09:57.170Z,10.47
2023-03-21T12:15:08.352Z,10.47
2023-03-21T12:20:31.918Z,10.30
2023-03-21T12:25:58.040Z,10.18
2023-03-21T12:31:18.035Z,10.15
2023-03-21T12:36:44.655Z,10.09
2023-03-21T12:42:10.710Z,10.15
2023-03-21T12:47:22.554Z,10.37
2023-03-21T12:52:29.074Z,10.51
2023-03-21T12:57:51.130Z,10.82
2023-03-21T13:03:13.307Z,11.10
2023-03-21T13:08:36.667Z,11.32
2023-03-21T13:13:46.664Z,11.36
2023-03-21T13:18:48.185Z,11.43
2023-03-21T13:24:25.028Z,11.56
2023-03-21T13:29:33.415Z,11.56
2023-03-21T13:34:38.074Z,11.49
2023-03-21T13:39:44.963Z,11.48
2023-03-21T13:44:58.019Z,11.47
2023-03-21T13:50:17.975Z,11.65
2023-03-21T13:55:20.362Z,11.85
2023-03-21T14:00:30.933Z,11.87
2023-03-21T14:05:33.618Z,11.79
2023-03-21T14:10:37.825Z,11.74
2023-03-21T14:15:54.903Z,11.53
2023-03-21T14:20:59.576Z,11.38
2023-03-21T14:26:01.071Z,11.28
2023-03-21T14:31:10.471Z,11.17
2023-03-21T14:36:23.747Z,11.00
2023-03-21T14:41:28.788Z,10.84
2023-03-21T14:46:30.459Z,10.65
2023-03-21T14:51:32.064Z,10.46
2023-03-21T14:56:36.213Z,10.39
2023-03-21T15:01:38.008Z,10.76
2023-03-21T15:06:57.844Z,11.23
2023-03-21T15:11:59.739Z,11.57
2023-03-21T15:17:05.166Z,11.70
2023-03-21T15:22:14.578Z,11.43
2023-03-21T15:27:19.062Z,10.97
2023-03-21T15:32:24.756Z,10.53
2023-03-21T15:37:27.916Z,10.26
2023-03-21T15:42:37.468Z,10.03
2023-03-21T15:47:51.454Z,10.07
2023-03-21T15:52:54.221Z,10.08
2023-03-21T15:58:04.784Z,10.04
2023-03-21T16:03:27.389Z,10.16
2023-03-21T16:08:35.849Z,10.28
2023-03-21T16:13:37.657Z,10.26
2023-03-21T16:18:39.140Z,10.17
2023-03-21T16:23:41.853Z,10.01
2023-03-21T16:28:45.059Z,9.89
2023-03-21T16:33:47.531Z,9.72
2023-03-21T16:38:51.448Z,9.52
2023-03-21T16:43:53.512Z,9.30
2023-03-21T16:48:57.875Z,9.15
2023-03-21T16:54:00.455Z,9.06
2023-03-21T16:59:02.028Z,8.89
2023-03-21T17:04:04.080Z,8.61
2023-03-21T17:09:06.815Z,8.41
2023-03-21T17:14:10.987Z,8.19
2023-03-21T17:19:13.749Z,7.98
2023-03-21T17:24:15.913Z,7.77
2023-03-21T17:29:17.617Z,7.62
2023-03-21T17:34:19.540Z,7.52
2023-03-21T17:39:28.674Z,7.41
2023-03-21T17:44:30.406Z,7.31
2023-03-21T17:49:32.154Z,7.22
2023-03-21T17:54:33.936Z,7.08
2023-03-21T17:59:36.235Z,6.91
2023-03-21T18:04:37.853Z,6.80
2023-03-21T18:09:39.622Z,6.75
2023-03-21T18:14:42.552Z,6.69
2023-03-21T18:19:45.186Z,6.58
2023-03-21T18:24:48.198Z,6.48
2023-03-21T18:35:14.706Z,6.33
2023-03-21T18:40:22.073Z,6.33
2023-03-21T18:45:25.222Z,6.27
2023-03-21T18:50:27.410Z,6.14
2023-03-21T18:55:44.368Z,5.99
2023-03-21T19:00:47.224Z,5.85
2023-03-21T19:05:48.887Z,5.80
2023-03-21T19:10:51.216Z,5.81
2023-03-21T19:15:54.099Z,5.76
2023-03-21T19:20:58.639Z,5.63
2023-03-21T19:26:00.276Z,5.52
2023-03-21T19:31:08.612Z,5.42
2023-03-21T19:36:21.238Z,5.36
2023-03-21T19:41:23.585Z,5.34
2023-03-21T19:46:26.465Z,5.30
2023-03-21T19:51:30.114Z,5.24
2023-03-21T19:56:32.159Z,5.11
2023-03-21T20:01:33.661Z,5.04
2023-03-21T20:06:36.157Z,5.00
2023-03-21T20:11:39.167Z,5.00
2023-03-21T20:16:43.536Z,4.96
2023-03-21T20:21:52.912Z,4.91
2023-03-21T20:26:57.314Z,4.90
2023-03-21T20:31:59.880Z,4.95
2023-03-21T20:37:03.121Z,4.90
2023-03-21T20:42:05.830Z,4.79
2023-03-21T20:47:07.658Z,4.70
2023-03-21T20:57:31.562Z,4.68
2023-03-21T21:02:33.131Z,4.61
2023-03-21T21:07:35.181Z,4.51
2023-03-21T21:12:42.047Z,4.42
2023-03-21T21:18:04.952Z,4.37
2023-03-21T21:23:06.519Z,4.39
2023-03-21T21:28:09.581Z,4.35
2023-03-21T21:33:11.284Z,4.35
2023-03-21T21:38:14.170Z,4.26
2023-03-21T21:43:19.305Z,4.19
2023-03-21T21:48:21.077Z,4.26
2023-03-21T21:53:23.361Z,4.25
2023-03-21T21:58:26.041Z,4.18
2023-03-21T22:03:27.902Z,4.06
2023-03-21T22:08:29.553Z,4.04
2023-03-21T22:13:31.262Z,4.10
2023-03-21T22:18:36.143Z,4.07
2023-03-21T22:23:37.882Z,3.99
2023-03-21T22:28:42.169Z,3.87
2023-03-21T22:33:45.783Z,3.71
2023-03-21T22:38:47.911Z,3.65
2023-03-21T22:43:49.574Z,3.66
2023-03-21T22:48:51.060Z,3.55
2023-03-21T22:53:52.583Z,3.47
2023-03-21T22:58:54.247Z,3.33
2023-03-21T23:03:55.809Z,3.13
2023-03-21T23:08:57.416Z,3.04
2023-03-21T23:14:07.573Z,3.03
2023-03-21T23:19:10.549Z,3.02
2023-03-21T23:24:12.712Z,2.96
2023-03-21T23:29:14.297Z,2.90
2023-03-21T23:34:16.075Z,2.92
2023-03-21T23:39:18.653Z,3.03
2023-03-21T23:44:20.237Z,3.04
2023-03-21T23:49:21.749Z,2.97
2023-03-21T23:54:23.410Z,2.87
2023-03-21T23:59:24.980Z,2.74
